Time;durP1;ratioP1;P1;durP2;ratioP2;P2;SDS_P1;SDS_P2;PMS_P1;PMS_P2;Temp;Humidity;BMP_temperature;BMP_pressure;BME280_temperature;BME280_humidity;BME280_pressure;Samples;Min_cycle;Max_cycle;Signal;HPM_P1;HPM_P2
2022/05/17 00:00:59;;;;;;;1.90;1.23;;;21.10;55.60;;;;;;5014402;28;20087;-75
2022/05/17 00:03:25;;;;;;;1.67;1.17;;;21.10;55.70;;;;;;5012255;28;20040;-76
2022/05/17 00:05:51;;;;;;;1.80;1.20;;;21.00;55.70;;;;;;5025072;28;20013;-75
2022/05/17 00:08:17;;;;;;;2.00;1.30;;;21.00;55.70;;;;;;5022359;28;20486;-75
2022/05/17 00:10:44;;;;;;;2.88;1.42;;;21.00;55.80;;;;;;5020137;28;20017;-77
2022/05/17 00:13:10;;;;;;;2.45;1.52;;;20.90;55.70;;;;;;5028503;28;20030;-75
2022/05/17 00:15:40;;;;;;;1.63;1.15;;;20.90;55.80;;;;;;5028495;28;20060;-77
2022/05/17 00:18:06;;;;;;;1.38;1.25;;;20.90;55.80;;;;;;5028071;28;20068;-77
2022/05/17 00:20:32;;;;;;;2.33;1.35;;;20.90;55.80;;;;;;5029193;28;20034;-76
2022/05/17 00:22:59;;;;;;;1.90;1.27;;;20.80;55.80;;;;;;5011475;28;20505;-76
2022/05/17 00:25:25;;;;;;;2.20;1.35;;;20.80;55.90;;;;;;5003844;28;20032;-77
2022/05/17 00:27:51;;;;;;;2.60;1.30;;;20.80;55.90;;;;;;5027290;28;20029;-77
2022/05/17 00:30:17;;;;;;;3.35;1.45;;;20.70;55.90;;;;;;5011584;28;20718;-76
2022/05/17 00:32:43;;;;;;;2.15;1.30;;;20.70;55.90;;;;;;5019813;28;20026;-76
2022/05/17 00:35:09;;;;;;;2.50;1.45;;;20.70;55.90;;;;;;5027433;28;20037;-76
2022/05/17 00:37:36;;;;;;;2.72;1.48;;;20.70;56.00;;;;;;5020254;28;20037;-76
2022/05/17 00:40:04;;;;;;;3.53;1.60;;;20.70;56.10;;;;;;5012023;28;20026;-76
2022/05/17 00:42:30;;;;;;;2.13;1.63;;;20.60;56.10;;;;;;5046672;28;20161;-77
2022/05/17 00:44:55;;;;;;;2.80;1.48;;;20.60;56.10;;;;;;5030220;28;20033;-77
2022/05/17 00:47:30;;;;;;;2.90;1.80;;;20.60;56.10;;;;;;5030411;28;20135;-76
2022/05/17 00:50:04;;;;;;;;;;;20.60;56.20;;;;;;5031292;28;20037;-76
2022/05/17 00:52:40;;;;;;;1.95;1.20;;;20.50;56.00;;;;;;5034137;28;19993;-77
2022/05/17 00:55:20;;;;;;;1.23;1.13;;;20.40;56.10;;;;;;5031318;28;20111;-78
2022/05/17 00:57:51;;;;;;;1.65;1.30;;;20.40;56.30;;;;;;5026783;28;20038;-76
2022/05/17 01:00:19;;;;;;;1.65;1.38;;;20.40;56.30;;;;;;5027455;28;20083;-76
2022/05/17 01:02:56;;;;;;;2.42;1.40;;;20.30;56.30;;;;;;5027664;28;20022;-76
2022/05/17 01:05:24;;;;;;;1.65;1.50;;;20.30;56.40;;;;;;5029438;28;20021;-76
2022/05/17 01:07:53;;;;;;;1.77;1.30;;;20.30;56.40;;;;;;5020781;28;20691;-76
2022/05/17 01:10:20;;;;;;;1.63;1.40;;;20.30;56.40;;;;;;5029928;28;20533;-76
2022/05/17 01:14:57;;;;;;;2.15;1.40;;;20.30;56.40;;;;;;5027408;28;20033;-77
2022/05/17 01:15:32;;;;;;;2.25;1.42;;;20.30;56.40;;;;;;5029566;28;20409;-76
2022/05/17 01:17:58;;;;;;;3.20;1.60;;;20.20;56.40;;;;;;5028733;28;20575;-76
2022/05/17 01:20:24;;;;;;;2.08;1.40;;;20.20;56.40;;;;;;5013992;28;20042;-76
2022/05/17 01:22:49;;;;;;;2.20;1.40;;;20.20;56.40;;;;;;5024442;28;20109;-76
2022/05/17 01:25:15;;;;;;;1.95;1.45;;;20.20;56.40;;;;;;5043567;28;20030;-76
2022/05/17 01:27:47;;;;;;;2.40;1.45;;;20.20;56.50;;;;;;5009685;28;20410;-76
2022/05/17 01:30:18;;;;;;;2.75;1.60;;;20.10;56.50;;;;;;5018338;28;20837;-75
2022/05/17 01:32:45;;;;;;;2.53;1.60;;;20.10;56.50;;;;;;5024275;28;20030;-76
2022/05/17 01:35:11;;;;;;;3.25;1.73;;;20.10;56.50;;;;;;5017317;28;20045;-76
2022/05/17 01:37:37;;;;;;;2.30;1.60;;;20.10;56.50;;;;;;5011422;28;20034;-75
2022/05/17 01:40:03;;;;;;;2.30;1.60;;;20.00;56.50;;;;;;5020282;28;20406;-76
2022/05/17 01:42:29;;;;;;;2.53;1.58;;;20.00;56.50;;;;;;5024415;28;20128;-75
2022/05/17 01:44:55;;;;;;;1.95;1.58;;;19.90;56.50;;;;;;5023133;28;20585;-75
2022/05/17 01:47:21;;;;;;;2.25;1.70;;;20.00;56.60;;;;;;5020694;28;20128;-76
2022/05/17 01:49:46;;;;;;;2.92;1.88;;;19.90;56.60;;;;;;5021546;28;20025;-77
2022/05/17 01:52:12;;;;;;;2.13;1.75;;;19.90;56.60;;;;;;5018688;28;20026;-77
2022/05/17 01:54:38;;;;;;;2.13;1.50;;;19.90;56.60;;;;;;5022749;28;20033;-76
2022/05/17 01:57:04;;;;;;;2.88;1.80;;;19.80;56.60;;;;;;5024486;28;20021;-75
2022/05/17 01:59:31;;;;;;;1.95;1.60;;;19.80;56.60;;;;;;5022936;28;20497;-76
2022/05/17 02:01:57;;;;;;;2.65;1.63;;;19.80;56.70;;;;;;4999164;28;20485;-76
2022/05/17 02:04:25;;;;;;;2.10;1.38;;;19.80;56.70;;;;;;5030443;28;20066;-76
2022/05/17 02:06:51;;;;;;;2.70;1.63;;;19.80;56.70;;;;;;5023347;28;20454;-75
2022/05/17 02:09:16;;;;;;;2.30;1.80;;;19.70;56.70;;;;;;5030165;28;20040;-76
2022/05/17 02:11:42;;;;;;;2.55;1.80;;;19.70;56.70;;;;;;5062096;28;20041;-76
2022/05/17 02:14:08;;;;;;;2.08;1.67;;;19.70;56.70;;;;;;5022897;28;20025;-77
2022/05/17 02:16:37;;;;;;;2.72;1.50;;;19.70;56.80;;;;;;5028603;28;20374;-76
2022/05/17 02:19:06;;;;;;;2.72;1.70;;;19.70;56.80;;;;;;5026172;28;20441;-76
2022/05/17 02:21:36;;;;;;;1.77;1.40;;;19.70;56.80;;;;;;5028761;28;20112;-76
2022/05/17 02:24:03;;;;;;;2.13;1.60;;;19.60;56.80;;;;;;5013146;28;20042;-76
2022/05/17 02:26:30;;;;;;;3.03;1.63;;;19.60;56.80;;;;;;5028591;28;20052;-77
2022/05/17 02:28:55;;;;;;;2.85;1.73;;;19.60;56.80;;;;;;5028620;28;20033;-76
2022/05/17 02:31:22;;;;;;;1.70;1.40;;;19.60;56.90;;;;;;5029794;28;20039;-76
2022/05/17 02:33:48;;;;;;;2.83;1.75;;;19.60;56.90;;;;;;5012690;28;20033;-76
2022/05/17 02:36:14;;;;;;;1.85;1.65;;;19.60;56.90;;;;;;5062405;28;20060;-77
2022/05/17 02:38:41;;;;;;;2.80;1.70;;;19.50;56.80;;;;;;5025062;28;20478;-75
2022/05/17 02:41:07;;;;;;;1.98;1.48;;;19.50;56.80;;;;;;5058627;28;20040;-75
2022/05/17 02:43:33;;;;;;;2.55;1.58;;;19.50;56.90;;;;;;5024883;28;20022;-75
2022/05/17 02:45:59;;;;;;;2.00;1.55;;;19.50;56.90;;;;;;5010700;28;20032;-75
2022/05/17 02:48:25;;;;;;;1.88;1.48;;;19.50;56.90;;;;;;5023859;28;20026;-76
2022/05/17 02:50:51;;;;;;;2.63;1.70;;;19.50;57.00;;;;;;5016499;28;20097;-76
2022/05/17 02:53:17;;;;;;;2.70;1.85;;;19.40;56.90;;;;;;5012046;28;20120;-77
2022/05/17 02:55:43;;;;;;;2.35;1.60;;;19.40;56.90;;;;;;5025047;28;20030;-76
2022/05/17 02:58:08;;;;;;;1.70;1.45;;;19.40;56.90;;;;;;4993792;28;20041;-74
2022/05/17 03:00:34;;;;;;;2.75;1.75;;;19.40;57.00;;;;;;5039235;28;20025;-75
2022/05/17 03:03:00;;;;;;;1.88;1.63;;;19.40;57.00;;;;;;5011326;28;20056;-75
2022/05/17 03:05:26;;;;;;;2.83;1.70;;;19.40;57.00;;;;;;5022282;28;20022;-75
2022/05/17 03:07:52;;;;;;;1.55;1.30;;;19.30;57.00;;;;;;5013256;28;20049;-77
2022/05/17 03:10:18;;;;;;;3.13;1.60;;;19.40;57.10;;;;;;5019582;28;20034;-77
2022/05/17 03:12:44;;;;;;;1.90;1.50;;;19.40;57.10;;;;;;5027213;28;20036;-76
2022/05/17 03:15:16;;;;;;;2.28;1.40;;;19.30;57.20;;;;;;5029958;28;20033;-76
2022/05/17 03:17:42;;;;;;;2.75;1.65;;;19.30;57.10;;;;;;5018702;28;20385;-76
2022/05/17 03:20:08;;;;;;;3.30;1.70;;;19.30;57.10;;;;;;5044233;28;20025;-76
2022/05/17 03:22:34;;;;;;;3.45;1.80;;;19.20;57.10;;;;;;5021146;28;20079;-76
2022/05/17 03:25:00;;;;;;;2.25;1.58;;;19.20;57.10;;;;;;5013881;28;20482;-76
2022/05/17 03:27:26;;;;;;;2.13;1.50;;;19.20;57.10;;;;;;5020820;28;20085;-76
2022/05/17 03:29:51;;;;;;;2.33;1.50;;;19.20;57.20;;;;;;4991798;28;20137;-76
2022/05/17 03:32:17;;;;;;;2.72;1.77;;;19.20;57.20;;;;;;5026574;28;20037;-76
2022/05/17 03:34:43;;;;;;;2.95;1.73;;;19.20;57.20;;;;;;5027943;28;20063;-76
2022/05/17 03:37:08;;;;;;;2.55;1.60;;;19.20;57.20;;;;;;5027117;28;20045;-76
2022/05/17 03:39:34;;;;;;;2.13;1.50;;;19.20;57.30;;;;;;5028390;28;20036;-76
2022/05/17 03:42:00;;;;;;;1.55;1.40;;;19.10;57.30;;;;;;5021220;28;20049;-76
2022/05/17 03:44:26;;;;;;;2.42;1.88;;;19.10;57.30;;;;;;5058568;28;20039;-76
2022/05/17 03:46:52;;;;;;;2.03;1.42;;;19.10;57.30;;;;;;5010753;28;20030;-76
2022/05/17 03:49:17;;;;;;;1.85;1.70;;;19.10;57.40;;;;;;4986656;28;20592;-77
2022/05/17 03:51:47;;;;;;;2.28;1.60;;;19.10;57.40;;;;;;5008173;28;20037;-77
2022/05/17 03:54:17;;;;;;;1.98;1.70;;;19.00;57.40;;;;;;5026257;28;20429;-77
2022/05/17 03:56:46;;;;;;;2.67;1.63;;;19.00;57.40;;;;;;5042678;28;20038;-77
2022/05/17 03:59:11;;;;;;;2.42;1.77;;;19.00;57.40;;;;;;5025139;28;20449;-77
2022/05/17 04:01:38;;;;;;;2.20;1.58;;;19.00;57.40;;;;;;5006341;28;20042;-77
2022/05/17 04:04:04;;;;;;;1.80;1.60;;;19.00;57.40;;;;;;5018432;28;20037;-77
2022/05/17 04:06:29;;;;;;;1.92;1.55;;;19.00;57.50;;;;;;4988669;28;20037;-77
2022/05/17 04:08:55;;;;;;;3.00;1.92;;;19.00;57.50;;;;;;5020020;28;20402;-77
2022/05/17 04:11:21;;;;;;;3.10;1.70;;;19.00;57.50;;;;;;5010903;28;20029;-77
2022/05/17 04:13:46;;;;;;;1.58;1.45;;;19.00;57.60;;;;;;5016343;28;20559;-77
2022/05/17 04:16:12;;;;;;;1.73;1.55;;;19.00;57.60;;;;;;5023614;28;20029;-77
2022/05/17 04:18:38;;;;;;;2.00;1.77;;;18.90;57.60;;;;;;4998954;28;20038;-77
2022/05/17 04:21:05;;;;;;;2.42;1.65;;;18.90;57.60;;;;;;5017145;28;20406;-77
2022/05/17 04:23:31;;;;;;;2.83;1.80;;;18.90;57.70;;;;;;5014323;28;20123;-77
2022/05/17 04:25:57;;;;;;;2.10;1.70;;;18.90;57.70;;;;;;5005649;28;20551;-77
2022/05/17 04:28:23;;;;;;;3.08;1.80;;;18.90;57.70;;;;;;5010990;28;20621;-77
2022/05/17 04:30:50;;;;;;;2.65;1.88;;;18.90;57.80;;;;;;5002132;28;20471;-77
2022/05/17 04:33:16;;;;;;;2.38;1.60;;;18.80;57.80;;;;;;5025022;28;20037;-77
2022/05/17 04:35:43;;;;;;;2.33;1.75;;;18.80;57.80;;;;;;5021328;28;20034;-78
2022/05/17 04:38:09;;;;;;;2.35;1.80;;;18.80;57.80;;;;;;5020781;28;20060;-77
2022/05/17 04:40:36;;;;;;;2.83;1.67;;;18.80;57.90;;;;;;5001238;28;20521;-78
2022/05/17 04:43:02;;;;;;;2.00;1.67;;;18.80;57.90;;;;;;5016960;28;20466;-76
2022/05/17 04:45:28;;;;;;;2.45;1.70;;;18.80;57.90;;;;;;5023750;28;20037;-77
2022/05/17 04:47:54;;;;;;;1.90;1.70;;;18.80;57.90;;;;;;5010958;28;20488;-77
2022/05/17 04:50:20;;;;;;;4.43;1.80;;;18.80;58.00;;;;;;5005542;28;20134;-77
2022/05/17 04:52:47;;;;;;;3.08;1.80;;;18.80;58.00;;;;;;5035943;28;20092;-77
2022/05/17 04:55:16;;;;;;;2.25;1.70;;;18.80;58.00;;;;;;5027865;28;20030;-77
2022/05/17 04:57:41;;;;;;;2.80;1.70;;;18.80;58.00;;;;;;5026356;28;20390;-77
2022/05/17 05:00:12;;;;;;;2.78;1.80;;;18.80;58.00;;;;;;5026724;28;20037;-77
2022/05/17 05:02:38;;;;;;;2.45;1.60;;;18.80;58.00;;;;;;5018081;28;20038;-78
2022/05/17 05:05:05;;;;;;;1.98;1.70;;;18.80;58.10;;;;;;5013524;28;20373;-77
2022/05/17 05:07:30;;;;;;;2.15;1.52;;;18.80;58.10;;;;;;5019453;28;20071;-77
2022/05/17 05:09:56;;;;;;;2.22;1.60;;;18.80;58.10;;;;;;5041527;28;20034;-76
2022/05/17 05:12:23;;;;;;;2.80;1.70;;;18.80;58.10;;;;;;5011010;28;20026;-77
2022/05/17 05:14:49;;;;;;;3.70;2.00;;;18.80;58.10;;;;;;4996156;28;20045;-77
2022/05/17 05:17:16;;;;;;;2.15;1.60;;;18.80;58.20;;;;;;5019563;28;20118;-76
2022/05/17 05:19:42;;;;;;;2.20;1.77;;;18.80;58.10;;;;;;5023544;28;20497;-76
2022/05/17 05:22:07;;;;;;;2.40;1.77;;;18.80;58.20;;;;;;5041499;28;20034;-78
2022/05/17 05:24:33;;;;;;;1.80;1.60;;;18.80;58.20;;;;;;5057808;28;20036;-76
2022/05/17 05:26:59;;;;;;;2.17;1.70;;;18.80;58.20;;;;;;5015079;28;20075;-78
2022/05/17 05:29:26;;;;;;;2.03;1.77;;;18.80;58.30;;;;;;5011818;28;20034;-76
2022/05/17 05:31:52;;;;;;;2.72;1.70;;;18.80;58.20;;;;;;5030630;28;20079;-75
2022/05/17 05:34:18;;;;;;;1.88;1.63;;;18.80;58.30;;;;;;5010426;28;20026;-76
2022/05/17 05:36:46;;;;;;;2.53;1.80;;;18.80;58.40;;;;;;5020094;28;20398;-75
2022/05/17 05:39:11;;;;;;;2.28;1.88;;;18.80;58.30;;;;;;5060460;28;20029;-77
2022/05/17 05:41:37;;;;;;;2.90;1.85;;;18.80;58.30;;;;;;5010002;28;20033;-76
2022/05/17 05:44:03;;;;;;;2.80;1.73;;;18.90;58.40;;;;;;5013912;28;20048;-76
2022/05/17 05:46:29;;;;;;;2.13;1.67;;;18.90;58.40;;;;;;5005765;28;20030;-77
2022/05/17 05:48:55;;;;;;;2.22;1.63;;;18.90;58.50;;;;;;5029102;28;20044;-76
2022/05/17 05:51:21;;;;;;;2.33;1.70;;;18.90;58.40;;;;;;5026696;28;20044;-76
2022/05/17 05:53:47;;;;;;;2.05;1.65;;;18.90;58.40;;;;;;5043961;28;20446;-76
2022/05/17 05:56:12;;;;;;;1.98;1.50;;;18.90;58.40;;;;;;5009835;28;20041;-77
2022/05/17 05:58:42;;;;;;;3.13;1.70;;;18.90;58.50;;;;;;5061356;28;20041;-77
2022/05/17 06:01:08;;;;;;;1.95;1.45;;;18.90;58.40;;;;;;5026326;28;20068;-76
2022/05/17 06:03:35;;;;;;;1.75;1.50;;;18.90;58.40;;;;;;5007502;28;20134;-77
2022/05/17 06:06:02;;;;;;;2.17;1.75;;;18.90;58.40;;;;;;5023305;28;20026;-78
2022/05/17 06:08:28;;;;;;;2.40;1.67;;;18.90;58.40;;;;;;5025360;28;20041;-76
2022/05/17 06:10:56;;;;;;;2.15;1.65;;;18.90;58.50;;;;;;5009633;28;20048;-76
2022/05/17 06:13:22;;;;;;;2.50;1.75;;;19.00;58.70;;;;;;5021053;28;20072;-76
2022/05/17 06:15:51;;;;;;;2.25;1.80;;;19.00;58.70;;;;;;5022600;28;20045;-76
2022/05/17 06:18:17;;;;;;;3.08;1.98;;;19.00;58.80;;;;;;5009599;28;20458;-77
2022/05/17 06:20:52;;;;;;;2.33;1.60;;;19.00;58.80;;;;;;5018929;28;20073;-77
2022/05/17 06:23:19;;;;;;;1.75;1.55;;;19.00;58.80;;;;;;5046325;28;20026;-76
2022/05/17 06:25:45;;;;;;;3.42;1.90;;;19.00;58.70;;;;;;5002817;28;20087;-77
2022/05/17 06:28:11;;;;;;;2.17;1.65;;;19.00;58.60;;;;;;5029168;28;20083;-77
2022/05/17 06:30:38;;;;;;;2.47;1.90;;;19.00;58.70;;;;;;5012058;28;20076;-77
2022/05/17 06:33:12;;;;;;;2.80;2.10;;;19.10;58.70;;;;;;5025746;28;20021;-77
2022/05/17 06:35:45;;;;;;;2.53;1.77;;;19.10;58.80;;;;;;5001273;28;20038;-78
2022/05/17 06:38:12;;;;;;;2.33;1.67;;;19.10;58.70;;;;;;5043664;28;20069;-77
2022/05/17 06:40:38;;;;;;;2.25;1.70;;;19.20;58.70;;;;;;5014234;28;20036;-76
2022/05/17 06:43:05;;;;;;;3.30;2.05;;;19.20;58.70;;;;;;5019414;28;20044;-75
2022/05/17 06:45:31;;;;;;;1.98;1.70;;;19.20;58.80;;;;;;5020729;28;20026;-75
2022/05/17 06:47:58;;;;;;;3.00;2.00;;;19.20;58.80;;;;;;5027937;28;20037;-76
2022/05/17 06:50:24;;;;;;;2.95;2.00;;;19.20;58.80;;;;;;5001435;28;20033;-76
2022/05/17 06:52:50;;;;;;;2.15;1.85;;;19.20;58.90;;;;;;5012910;28;20410;-76
2022/05/17 06:55:15;;;;;;;2.50;2.00;;;19.30;59.00;;;;;;5021953;28;20037;-75
2022/05/17 06:57:42;;;;;;;2.92;1.80;;;19.30;59.10;;;;;;5019330;28;20034;-77
2022/05/17 07:00:11;;;;;;;5.57;2.58;;;19.30;59.10;;;;;;5013009;28;20397;-76
2022/05/17 07:02:38;;;;;;;3.38;1.92;;;19.40;59.20;;;;;;5029158;28;20029;-77
2022/05/17 07:05:05;;;;;;;3.35;2.20;;;19.40;59.20;;;;;;5028994;28;20043;-78
2022/05/17 07:07:31;;;;;;;3.30;2.20;;;19.40;59.30;;;;;;5044650;28;20509;-75
2022/05/17 07:15:26;;;;;;;2.85;1.95;;;19.50;59.30;;;;;;5023537;28;20037;-76
2022/05/17 07:17:51;;;;;;;2.47;2.00;;;19.50;59.30;;;;;;5040292;28;20160;-76
2022/05/17 07:20:17;;;;;;;2.17;1.85;;;19.60;59.40;;;;;;5023076;28;20449;-76
2022/05/17 07:22:43;;;;;;;3.33;1.90;;;19.60;59.30;;;;;;5020721;28;20475;-75
2022/05/17 07:25:10;;;;;;;2.63;1.98;;;19.60;59.40;;;;;;5027711;28;20075;-78
2022/05/17 07:27:37;;;;;;;2.45;1.92;;;19.70;59.40;;;;;;5012220;28;20025;-77
2022/05/17 07:30:04;;;;;;;2.10;1.75;;;19.70;59.40;;;;;;5026671;28;20034;-77
2022/05/17 07:32:30;;;;;;;2.65;1.83;;;19.70;59.30;;;;;;5059761;28;20381;-76
2022/05/17 07:34:56;;;;;;;2.20;1.83;;;19.80;59.30;;;;;;5018362;28;20108;-77
2022/05/17 07:37:22;;;;;;;2.42;1.73;;;19.80;59.30;;;;;;5037195;28;20490;-77
2022/05/17 07:39:48;;;;;;;2.55;1.70;;;19.80;59.20;;;;;;5025276;28;20041;-76
2022/05/17 07:42:14;;;;;;;2.40;1.75;;;19.80;59.20;;;;;;5018319;28;20033;-77
2022/05/17 07:44:39;;;;;;;2.33;1.70;;;19.90;59.20;;;;;;5060240;28;20034;-76
2022/05/17 07:47:06;;;;;;;2.25;1.67;;;19.90;59.10;;;;;;5030203;28;20029;-76
2022/05/17 07:49:33;;;;;;;2.40;1.70;;;19.90;59.00;;;;;;5002263;28;20037;-77
2022/05/17 07:51:59;;;;;;;2.65;1.95;;;20.00;59.10;;;;;;5002493;28;20038;-77
2022/05/17 07:54:25;;;;;;;2.25;1.83;;;20.00;59.10;;;;;;5050687;28;20034;-77
2022/05/17 07:56:51;;;;;;;2.67;1.75;;;20.00;59.00;;;;;;5019062;28;20021;-77
2022/05/17 07:59:16;;;;;;;2.00;1.55;;;20.10;59.00;;;;;;5040268;28;20057;-76
2022/05/17 08:01:42;;;;;;;1.90;1.60;;;20.10;59.60;;;;;;5011669;28;20025;-77
2022/05/17 08:04:08;;;;;;;1.95;1.73;;;20.10;58.90;;;;;;5028847;28;20065;-77
2022/05/17 08:06:35;;;;;;;2.75;1.50;;;20.10;58.90;;;;;;5027263;28;20471;-77
2022/05/17 08:09:02;;;;;;;2.92;1.63;;;20.20;58.90;;;;;;5010779;28;20034;-77
2022/05/17 08:11:28;;;;;;;2.70;1.85;;;20.20;58.80;;;;;;5028607;28;20107;-77
2022/05/17 08:13:54;;;;;;;2.38;1.70;;;20.20;58.80;;;;;;4989370;28;20490;-76
2022/05/17 08:16:19;;;;;;;2.42;1.73;;;20.20;58.80;;;;;;5021880;28;20044;-76
2022/05/17 08:18:45;;;;;;;1.70;1.50;;;20.20;58.70;;;;;;5016884;28;20459;-76
2022/05/17 08:21:11;;;;;;;1.90;1.60;;;20.30;58.70;;;;;;5009806;28;20030;-76
2022/05/17 08:23:37;;;;;;;2.17;1.73;;;20.20;58.70;;;;;;5029918;28;20038;-77
2022/05/17 08:28:47;;;;;;;1.73;1.52;;;20.30;58.80;;;;;;5018617;28;20447;-76
2022/05/17 08:31:13;;;;;;;2.50;1.77;;;20.30;58.70;;;;;;5023467;28;20121;-76
2022/05/17 08:33:39;;;;;;;1.50;1.40;;;20.30;58.70;;;;;;5027723;28;20532;-77
2022/05/17 08:36:09;;;;;;;2.53;1.70;;;20.30;58.70;;;;;;5005938;28;20034;-77
2022/05/17 08:38:38;;;;;;;2.70;1.52;;;20.40;58.70;;;;;;5020176;28;20083;-76
2022/05/17 08:41:12;;;;;;;2.25;1.83;;;20.40;58.70;;;;;;5022580;28;20072;-75
2022/05/17 08:43:55;;;;;;;2.20;1.70;;;20.40;58.70;;;;;;5024690;28;20057;-76
2022/05/17 08:46:48;;;;;;;2.35;1.45;;;20.40;58.70;;;;;;5027169;28;20025;-76
2022/05/17 08:49:24;;;;;;;2.67;1.60;;;20.40;58.70;;;;;;5025036;28;20125;-76
2022/05/17 08:52:02;;;;;;;3.53;1.70;;;20.40;58.70;;;;;;5004248;28;20477;-76
2022/05/17 08:54:55;;;;;;;2.67;1.73;;;20.50;58.70;;;;;;5019874;28;20124;-77
2022/05/17 08:57:41;;;;;;;2.10;1.70;;;20.50;58.80;;;;;;4987809;28;20077;-76
2022/05/17 09:00:21;;;;;;;2.55;1.80;;;20.50;58.80;;;;;;5019365;28;20036;-76
2022/05/17 09:02:56;;;;;;;3.55;1.88;;;20.50;58.70;;;;;;5007548;28;20017;-77
2022/05/17 09:05:57;;;;;;;3.38;1.80;;;20.50;58.70;;;;;;5007540;28;21988;-76
2022/05/17 09:08:41;;;;;;;2.80;1.70;;;20.50;58.90;;;;;;5018188;28;20042;-77
2022/05/17 09:11:07;;;;;;;2.65;1.73;;;20.60;58.90;;;;;;5030328;28;20107;-76
2022/05/17 09:13:57;;;;;;;2.35;1.75;;;20.60;58.70;;;;;;5017444;28;20033;-76
2022/05/17 09:16:24;;;;;;;2.88;1.75;;;20.60;58.90;;;;;;5045954;28;20037;-76
2022/05/17 09:18:51;;;;;;;3.28;1.85;;;20.60;58.80;;;;;;5037212;28;20669;-77
2022/05/17 09:21:27;;;;;;;3.80;2.28;;;20.60;58.80;;;;;;5015750;28;20049;-76
2022/05/17 09:23:53;;;;;;;2.47;1.65;;;20.70;58.90;;;;;;5018361;28;20085;-75
2022/05/17 09:26:19;;;;;;;3.50;1.75;;;20.70;58.90;;;;;;5013001;28;20474;-76
2022/05/17 09:28:51;;;;;;;3.22;1.73;;;20.70;58.90;;;;;;5030841;28;20030;-78
2022/05/17 09:31:23;;;;;;;1.88;1.55;;;20.70;59.00;;;;;;5023815;28;20025;-76
2022/05/17 09:33:50;;;;;;;3.05;1.70;;;20.80;59.00;;;;;;5025601;28;20091;-75
2022/05/17 09:36:23;;;;;;;3.35;1.83;;;20.80;59.00;;;;;;5006857;28;20030;-76
2022/05/17 09:38:52;;;;;;;2.15;1.77;;;20.80;59.00;;;;;;5031282;28;20105;-75
2022/05/17 09:41:34;;;;;;;1.83;1.50;;;20.80;59.00;;;;;;5023225;28;20044;-76
2022/05/17 09:44:12;;;;;;;2.97;1.63;;;20.90;59.00;;;;;;5031201;28;20029;-77
2022/05/17 09:46:55;;;;;;;2.40;1.50;;;20.90;59.00;;;;;;5046044;28;20059;-78
2022/05/17 09:52:32;;;;;;;2.83;1.60;;;21.00;58.80;;;;;;5029386;28;20474;-77
2022/05/17 09:55:22;;;;;;;1.70;1.38;;;21.00;58.50;;;;;;5029063;28;20470;-76
2022/05/17 09:58:02;;;;;;;2.40;1.52;;;21.00;58.50;;;;;;5027167;28;20032;-76
2022/05/17 10:00:30;;;;;;;2.40;1.70;;;21.10;58.40;;;;;;5027104;28;20029;-77
2022/05/17 10:03:03;;;;;;;3.22;1.67;;;21.10;58.30;;;;;;5026927;28;20052;-78
2022/05/17 10:05:40;;;;;;;2.42;1.52;;;21.10;58.30;;;;;;5026493;28;20116;-78
2022/05/17 10:08:12;;;;;;;2.65;1.60;;;21.20;58.30;;;;;;5060066;28;20029;-77
2022/05/17 10:10:42;;;;;;;2.70;1.40;;;21.20;58.30;;;;;;5016868;28;20036;-78
2022/05/17 10:13:32;;;;;;;2.00;1.40;;;21.20;58.20;;;;;;5027608;28;20045;-77
2022/05/17 10:16:11;;;;;;;2.45;1.50;;;21.20;58.20;;;;;;5018951;28;20037;-79
2022/05/17 10:18:53;;;;;;;2.08;1.50;;;21.30;58.20;;;;;;5025629;28;20146;-78
2022/05/17 10:21:26;;;;;;;3.17;1.80;;;21.30;58.30;;;;;;5031196;28;20037;-80
2022/05/17 10:24:13;;;;;;;1.38;1.27;;;21.30;58.30;;;;;;5019015;28;20037;-79
2022/05/17 10:26:43;;;;;;;1.65;1.42;;;21.30;59.00;;;;;;5000758;28;20053;-77
2022/05/17 10:29:33;;;;;;;3.47;1.52;;;21.40;58.20;;;;;;5044933;28;20037;-78
2022/05/17 10:32:30;;;;;;;3.88;1.85;;;21.40;58.40;;;;;;5021893;28;20038;-77
2022/05/17 10:35:19;;;;;;;2.22;1.40;;;21.40;58.40;;;;;;5017116;28;20102;-78
2022/05/17 10:38:12;;;;;;;2.45;1.55;;;21.50;58.30;;;;;;5027264;28;20067;-78
2022/05/17 10:40:44;;;;;;;2.97;1.65;;;21.50;58.30;;;;;;5026445;28;20045;-77
2022/05/17 10:43:22;;;;;;;2.15;1.40;;;21.60;58.30;;;;;;5029580;28;20083;-77
2022/05/17 10:46:08;;;;;;;1.88;1.58;;;21.70;58.30;;;;;;5029605;28;20053;-77
2022/05/17 10:48:59;;;;;;;1.60;1.40;;;21.70;58.20;;;;;;5021499;28;20033;-77
2022/05/17 10:51:41;;;;;;;2.70;1.60;;;21.80;58.20;;;;;;5030231;28;20060;-76
2022/05/17 10:54:26;;;;;;;3.35;1.80;;;21.90;58.20;;;;;;5023661;28;20490;-76
2022/05/17 10:57:39;;;;;;;2.50;1.52;;;21.90;58.10;;;;;;5022005;28;20441;-78
2022/05/17 11:00:18;;;;;;;2.05;1.52;;;22.00;58.00;;;;;;5002218;28;20046;-76
2022/05/17 11:03:28;;;;;;;2.90;1.60;;;22.10;57.90;;;;;;4988135;28;20035;-76
2022/05/17 11:06:00;;;;;;;2.97;1.60;;;22.10;58.00;;;;;;5000013;28;20104;-76
2022/05/17 11:08:48;;;;;;;2.45;1.60;;;22.20;57.90;;;;;;5027840;28;20030;-76
2022/05/17 11:11:37;;;;;;;2.15;1.63;;;22.20;58.00;;;;;;5024049;28;20025;-77
2022/05/17 11:14:17;;;;;;;2.58;1.50;;;22.30;57.90;;;;;;5043184;28;20030;-77
2022/05/17 11:17:15;;;;;;;3.15;1.70;;;22.40;58.00;;;;;;5027130;28;20088;-76
2022/05/17 11:19:44;;;;;;;2.63;1.75;;;22.50;58.00;;;;;;5026072;28;20063;-77
2022/05/17 11:22:35;;;;;;;2.28;1.60;;;22.50;57.70;;;;;;5025558;28;20053;-76
2022/05/17 11:25:09;;;;;;;1.98;1.48;;;22.60;57.70;;;;;;5025085;28;20417;-76
2022/05/17 11:27:46;;;;;;;2.60;1.50;;;22.60;57.70;;;;;;5023810;28;20026;-77
2022/05/17 11:30:42;;;;;;;2.10;1.67;;;22.70;57.60;;;;;;5022822;28;20017;-78
2022/05/17 11:33:25;;;;;;;2.13;1.67;;;22.80;57.60;;;;;;5025800;28;20053;-77
2022/05/17 11:36:02;;;;;;;1.80;1.40;;;22.80;57.50;;;;;;5027268;28;20038;-78
2022/05/17 11:38:31;;;;;;;3.20;1.80;;;22.90;57.40;;;;;;5029694;28;20091;-77
2022/05/17 11:40:59;;;;;;;2.45;1.50;;;23.00;57.40;;;;;;5020518;28;20042;-76
2022/05/17 11:44:11;;;;;;;2.38;1.63;;;23.00;57.40;;;;;;5028665;28;20055;-76
2022/05/17 11:46:57;;;;;;;2.55;1.80;;;23.10;57.40;;;;;;5022908;28;20026;-76
2022/05/17 11:49:25;;;;;;;3.28;1.80;;;23.20;57.40;;;;;;5015305;28;20034;-76
2022/05/17 11:51:56;;;;;;;2.55;1.60;;;23.20;57.20;;;;;;5028639;28;20029;-76
2022/05/17 11:54:45;;;;;;;3.58;1.73;;;23.30;57.20;;;;;;5024464;28;20088;-75
2022/05/17 11:57:23;;;;;;;2.28;1.60;;;23.40;57.20;;;;;;5028269;28;20029;-75
2022/05/17 12:00:04;;;;;;;3.67;1.70;;;23.40;57.10;;;;;;5028930;28;20029;-75
2022/05/17 12:02:48;;;;;;;3.10;1.60;;;23.50;57.10;;;;;;5012307;28;20030;-77
2022/05/17 12:05:43;;;;;;;2.97;1.65;;;23.60;57.00;;;;;;5025108;28;20021;-77
2022/05/17 12:08:24;;;;;;;;;;;23.60;57.00;;;;;;5052988;28;20037;-76
2022/05/17 12:11:11;;;;;;;2.85;1.67;;;23.60;56.80;;;;;;5028631;28;19913;-75
2022/05/17 12:13:53;;;;;;;2.45;1.80;;;23.70;56.80;;;;;;5023834;28;20083;-76
2022/05/17 12:16:25;;;;;;;3.08;1.80;;;23.70;56.80;;;;;;5021373;28;20540;-76
2022/05/17 12:18:55;;;;;;;3.08;1.85;;;23.80;56.80;;;;;;5021112;28;20445;-77
2022/05/17 12:21:41;;;;;;;3.22;2.00;;;23.80;56.70;;;;;;5027436;28;20033;-76
2022/05/17 12:24:13;;;;;;;3.47;2.00;;;23.90;56.70;;;;;;5026537;28;20026;-76
2022/05/17 12:26:55;;;;;;;3.65;1.98;;;23.90;56.60;;;;;;5027339;28;20030;-76
2022/05/17 12:32:12;;;;;;;3.60;2.10;;;24.10;56.60;;;;;;5027117;28;20029;-76
2022/05/17 12:34:40;;;;;;;4.22;2.05;;;24.10;56.40;;;;;;5007112;28;20071;-76
2022/05/17 12:37:15;;;;;;;2.60;1.63;;;24.20;56.50;;;;;;5031457;28;20030;-76
2022/05/17 12:45:17;;;;;;;3.03;2.05;;;24.30;56.20;;;;;;5018292;28;20393;-76
2022/05/17 12:48:01;;;;;;;2.78;1.92;;;24.40;56.30;;;;;;5013948;28;20546;-77
2022/05/17 12:50:51;;;;;;;3.35;2.15;;;24.40;56.30;;;;;;5031122;28;20033;-76
2022/05/17 12:53:21;;;;;;;3.13;1.67;;;24.40;56.30;;;;;;5030489;28;20076;-77
2022/05/17 12:56:01;;;;;;;3.60;2.20;;;24.50;56.20;;;;;;5027662;28;20025;-76
2022/05/17 12:58:32;;;;;;;2.53;2.10;;;24.50;56.90;;;;;;5019954;28;20028;-76
2022/05/17 13:00:59;;;;;;;3.20;2.00;;;24.60;56.20;;;;;;5047176;28;20045;-77
2022/05/17 13:03:28;;;;;;;2.70;1.88;;;24.60;56.10;;;;;;4988669;28;20457;-77
2022/05/17 13:05:57;;;;;;;2.67;1.92;;;24.60;56.10;;;;;;5023567;28;20029;-77
2022/05/17 13:08:25;;;;;;;2.28;1.85;;;24.70;56.20;;;;;;5010509;28;20033;-77
2022/05/17 13:11:00;;;;;;;3.50;2.03;;;24.70;56.10;;;;;;5035633;28;20463;-76
2022/05/17 13:13:27;;;;;;;3.30;2.22;;;24.70;56.10;;;;;;5030631;28;20079;-77
2022/05/17 13:16:00;;;;;;;2.92;2.00;;;24.80;56.00;;;;;;5011965;28;20038;-77
2022/05/17 13:18:34;;;;;;;2.92;2.00;;;24.80;56.00;;;;;;5004917;28;20037;-77
2022/05/17 13:21:01;;;;;;;3.05;1.90;;;24.80;55.90;;;;;;5019815;28;20638;-77
2022/05/17 13:23:30;;;;;;;3.50;2.00;;;24.80;55.90;;;;;;5011757;28;20033;-78
2022/05/17 13:25:59;;;;;;;3.40;2.00;;;24.90;55.90;;;;;;5027527;28;20475;-76